sensor_id;sensor_type;location;lat;lon;timestamp;temperature;humidity
11762;DHT22;5938;47.098;15.474;2024-01-16T00:03:15;-0.10;91.40
11762;DHT22;5938;47.098;15.474;2024-01-16T00:07:19;-0.10;91.50
11762;DHT22;5938;47.098;15.474;2024-01-16T00:11:24;-0.20;90.70
11762;DHT22;5938;47.098;15.474;2024-01-16T00:15:27;-0.50;92.00
11762;DHT22;5938;47.098;15.474;2024-01-16T00:19:31;-0.70;91.20
11762;DHT22;5938;47.098;15.474;2024-01-16T00:23:34;-0.80;91.50
11762;DHT22;5938;47.098;15.474;2024-01-16T00:27:39;-1.00;91.50
11762;DHT22;5938;47.098;15.474;2024-01-16T00:31:43;-0.90;91.80
11762;DHT22;5938;47.098;15.474;2024-01-16T00:35:46;-1.00;89.60
11762;DHT22;5938;47.098;15.474;2024-01-16T00:39:49;-0.70;90.70
11762;DHT22;5938;47.098;15.474;2024-01-16T00:43:54;-0.90;90.30
11762;DHT22;5938;47.098;15.474;2024-01-16T00:47:58;-1.20;90.40
11762;DHT22;5938;47.098;15.474;2024-01-16T00:52:01;-1.30;90.00
11762;DHT22;5938;47.098;15.474;2024-01-16T00:56:05;-0.80;90.30
11762;DHT22;5938;47.098;15.474;2024-01-16T01:00:11;-0.70;89.40
11762;DHT22;5938;47.098;15.474;2024-01-16T01:04:14;-0.40;85.90
11762;DHT22;5938;47.098;15.474;2024-01-16T01:08:20;-0.20;86.40
11762;DHT22;5938;47.098;15.474;2024-01-16T01:12:31;-0.60;88.30
11762;DHT22;5938;47.098;15.474;2024-01-16T01:16:39;-0.90;90.10
11762;DHT22;5938;47.098;15.474;2024-01-16T01:20:42;-1.50;90.20
11762;DHT22;5938;47.098;15.474;2024-01-16T01:24:46;-1.70;91.20
11762;DHT22;5938;47.098;15.474;2024-01-16T01:28:51;-2.00;91.10
11762;DHT22;5938;47.098;15.474;2024-01-16T01:32:57;-2.20;92.10
11762;DHT22;5938;47.098;15.474;2024-01-16T01:37:01;-2.00;92.60
11762;DHT22;5938;47.098;15.474;2024-01-16T01:41:05;-2.30;93.20
11762;DHT22;5938;47.098;15.474;2024-01-16T01:45:10;-2.50;93.10
11762;DHT22;5938;47.098;15.474;2024-01-16T01:49:15;-2.40;93.20
11762;DHT22;5938;47.098;15.474;2024-01-16T01:53:19;-2.70;93.80
11762;DHT22;5938;47.098;15.474;2024-01-16T01:57:23;-2.80;94.60
11762;DHT22;5938;47.098;15.474;2024-01-16T02:01:28;-2.90;94.90
11762;DHT22;5938;47.098;15.474;2024-01-16T02:05:34;-3.20;94.90
11762;DHT22;5938;47.098;15.474;2024-01-16T02:09:38;-3.00;95.40
11762;DHT22;5938;47.098;15.474;2024-01-16T02:13:41;-3.20;95.80
11762;DHT22;5938;47.098;15.474;2024-01-16T02:17:47;-3.40;96.30
11762;DHT22;5938;47.098;15.474;2024-01-16T02:21:54;-3.30;96.30
11762;DHT22;5938;47.098;15.474;2024-01-16T02:26:03;-3.20;96.60
11762;DHT22;5938;47.098;15.474;2024-01-16T02:30:07;-3.40;96.70
11762;DHT22;5938;47.098;15.474;2024-01-16T02:34:11;-3.40;97.10
11762;DHT22;5938;47.098;15.474;2024-01-16T02:38:15;-3.30;97.00
11762;DHT22;5938;47.098;15.474;2024-01-16T02:42:20;-3.60;97.50
11762;DHT22;5938;47.098;15.474;2024-01-16T02:46:23;-3.60;98.00
11762;DHT22;5938;47.098;15.474;2024-01-16T02:50:27;-3.70;98.70
11762;DHT22;5938;47.098;15.474;2024-01-16T02:54:30;-3.70;98.30
11762;DHT22;5938;47.098;15.474;2024-01-16T02:58:37;-4.00;98.60
11762;DHT22;5938;47.098;15.474;2024-01-16T03:02:40;-3.80;98.70
11762;DHT22;5938;47.098;15.474;2024-01-16T03:06:44;-4.10;99.00
11762;DHT22;5938;47.098;15.474;2024-01-16T03:10:47;-4.10;99.70
11762;DHT22;5938;47.098;15.474;2024-01-16T03:14:53;-4.40;99.80
11762;DHT22;5938;47.098;15.474;2024-01-16T03:18:56;-4.30;99.90
11762;DHT22;5938;47.098;15.474;2024-01-16T03:23:00;-4.00;99.90
11762;DHT22;5938;47.098;15.474;2024-01-16T03:27:04;-4.10;99.80
11762;DHT22;5938;47.098;15.474;2024-01-16T03:31:09;-4.30;99.90
11762;DHT22;5938;47.098;15.474;2024-01-16T03:35:12;-4.20;99.90
11762;DHT22;5938;47.098;15.474;2024-01-16T03:39:16;-4.30;99.90
11762;DHT22;5938;47.098;15.474;2024-01-16T03:43:20;-4.30;99.90
11762;DHT22;5938;47.098;15.474;2024-01-16T03:47:25;-4.30;99.90
11762;DHT22;5938;47.098;15.474;2024-01-16T03:51:28;-4.40;99.90
11762;DHT22;5938;47.098;15.474;2024-01-16T03:55:32;-4.50;99.90
11762;DHT22;5938;47.098;15.474;2024-01-16T03:59:37;-4.60;99.90
11762;DHT22;5938;47.098;15.474;2024-01-16T04:03:42;-4.70;99.90
11762;DHT22;5938;47.098;15.474;2024-01-16T04:07:45;-4.90;99.90
11762;DHT22;5938;47.098;15.474;2024-01-16T04:11:50;-5.00;99.90
11762;DHT22;5938;47.098;15.474;2024-01-16T04:15:53;-5.00;99.90
11762;DHT22;5938;47.098;15.474;2024-01-16T04:19:58;-5.00;99.90
11762;DHT22;5938;47.098;15.474;2024-01-16T04:24:02;-4.90;99.90
11762;DHT22;5938;47.098;15.474;2024-01-16T04:28:05;-5.00;99.90
11762;DHT22;5938;47.098;15.474;2024-01-16T04:32:09;-4.90;99.90
11762;DHT22;5938;47.098;15.474;2024-01-16T04:36:14;-5.30;99.90
11762;DHT22;5938;47.098;15.474;2024-01-16T04:40:17;-5.30;99.90
11762;DHT22;5938;47.098;15.474;2024-01-16T04:44:20;-5.20;99.90
11762;DHT22;5938;47.098;15.474;2024-01-16T04:48:24;-5.20;99.90
11762;DHT22;5938;47.098;15.474;2024-01-16T04:52:29;-5.30;99.90
11762;DHT22;5938;47.098;15.474;2024-01-16T04:56:32;-5.10;99.90
11762;DHT22;5938;47.098;15.474;2024-01-16T05:00:36;-5.10;99.90
11762;DHT22;5938;47.098;15.474;2024-01-16T05:04:39;-5.10;99.90
11762;DHT22;5938;47.098;15.474;2024-01-16T05:08:44;-5.00;99.90
11762;DHT22;5938;47.098;15.474;2024-01-16T05:12:47;-5.00;99.90
11762;DHT22;5938;47.098;15.474;2024-01-16T05:16:51;-5.20;99.90
11762;DHT22;5938;47.098;15.474;2024-01-16T05:20:54;-5.40;99.90
11762;DHT22;5938;47.098;15.474;2024-01-16T05:25:03;-5.30;99.90
11762;DHT22;5938;47.098;15.474;2024-01-16T05:29:06;-5.60;99.90
11762;DHT22;5938;47.098;15.474;2024-01-16T05:33:10;-5.50;99.90
11762;DHT22;5938;47.098;15.474;2024-01-16T05:37:13;-5.60;99.90
11762;DHT22;5938;47.098;15.474;2024-01-16T05:41:18;-5.50;99.90
11762;DHT22;5938;47.098;15.474;2024-01-16T05:45:22;-5.60;99.90
11762;DHT22;5938;47.098;15.474;2024-01-16T05:49:25;-5.90;99.90
11762;DHT22;5938;47.098;15.474;2024-01-16T05:53:29;-5.90;99.90
11762;DHT22;5938;47.098;15.474;2024-01-16T05:57:34;-5.90;99.90
11762;DHT22;5938;47.098;15.474;2024-01-16T06:01:37;-6.10;99.90
11762;DHT22;5938;47.098;15.474;2024-01-16T06:05:41;-5.90;99.90
11762;DHT22;5938;47.098;15.474;2024-01-16T06:09:44;-6.20;99.90
11762;DHT22;5938;47.098;15.474;2024-01-16T06:13:49;-6.00;99.90
11762;DHT22;5938;47.098;15.474;2024-01-16T06:17:52;-6.50;99.90
11762;DHT22;5938;47.098;15.474;2024-01-16T06:21:56;-6.30;99.90
11762;DHT22;5938;47.098;15.474;2024-01-16T06:26:00;-6.50;99.90
11762;DHT22;5938;47.098;15.474;2024-01-16T06:30:06;-6.40;99.90
11762;DHT22;5938;47.098;15.474;2024-01-16T06:34:10;-6.50;99.90
11762;DHT22;5938;47.098;15.474;2024-01-16T06:38:14;-6.70;99.90
11762;DHT22;5938;47.098;15.474;2024-01-16T06:42:18;-6.60;99.90
11762;DHT22;5938;47.098;15.474;2024-01-16T06:46:23;-6.70;99.90
11762;DHT22;5938;47.098;15.474;2024-01-16T06:50:27;-6.60;99.90
11762;DHT22;5938;47.098;15.474;2024-01-16T06:54:31;-6.80;99.90
11762;DHT22;5938;47.098;15.474;2024-01-16T06:58:42;-6.70;99.90
11762;DHT22;5938;47.098;15.474;2024-01-16T07:02:50;-6.60;99.90
11762;DHT22;5938;47.098;15.474;2024-01-16T07:06:53;-6.50;99.90
11762;DHT22;5938;47.098;15.474;2024-01-16T07:10:57;-6.40;99.90
11762;DHT22;5938;47.098;15.474;2024-01-16T07:15:00;-6.30;99.90
11762;DHT22;5938;47.098;15.474;2024-01-16T07:19:05;-6.40;99.90
11762;DHT22;5938;47.098;15.474;2024-01-16T07:23:09;-6.60;99.90
11762;DHT22;5938;47.098;15.474;2024-01-16T07:27:12;-6.50;99.90
11762;DHT22;5938;47.098;15.474;2024-01-16T07:31:16;-6.50;99.90
11762;DHT22;5938;47.098;15.474;2024-01-16T07:35:21;-6.50;99.90
11762;DHT22;5938;47.098;15.474;2024-01-16T07:39:24;-6.50;99.90
11762;DHT22;5938;47.098;15.474;2024-01-16T07:43:28;-6.40;99.90
11762;DHT22;5938;47.098;15.474;2024-01-16T07:47:32;-6.20;99.90
11762;DHT22;5938;47.098;15.474;2024-01-16T07:51:37;-6.30;99.90
11762;DHT22;5938;47.098;15.474;2024-01-16T07:55:41;-6.30;99.90
11762;DHT22;5938;47.098;15.474;2024-01-16T07:59:44;-6.20;99.90
11762;DHT22;5938;47.098;15.474;2024-01-16T08:03:48;-6.30;99.90
11762;DHT22;5938;47.098;15.474;2024-01-16T08:07:53;-6.10;99.90
11762;DHT22;5938;47.098;15.474;2024-01-16T08:11:57;-5.90;99.90
11762;DHT22;5938;47.098;15.474;2024-01-16T08:16:00;-5.50;99.90
11762;DHT22;5938;47.098;15.474;2024-01-16T08:20:06;-5.40;99.90
11762;DHT22;5938;47.098;15.474;2024-01-16T08:24:13;-5.30;99.90
11762;DHT22;5938;47.098;15.474;2024-01-16T08:28:17;-5.30;99.90
11762;DHT22;5938;47.098;15.474;2024-01-16T08:32:24;-5.00;99.90
11762;DHT22;5938;47.098;15.474;2024-01-16T08:36:27;-4.80;99.90
11762;DHT22;5938;47.098;15.474;2024-01-16T08:40:32;-4.70;99.90
11762;DHT22;5938;47.098;15.474;2024-01-16T08:44:36;-4.70;99.90
11762;DHT22;5938;47.098;15.474;2024-01-16T08:48:39;-4.70;99.90
11762;DHT22;5938;47.098;15.474;2024-01-16T08:52:43;-4.50;99.90
11762;DHT22;5938;47.098;15.474;2024-01-16T08:56:48;-4.30;99.90
11762;DHT22;5938;47.098;15.474;2024-01-16T09:00:52;-4.10;99.90
11762;DHT22;5938;47.098;15.474;2024-01-16T09:04:56;-3.80;99.90
11762;DHT22;5938;47.098;15.474;2024-01-16T09:09:00;-4.30;99.90
11762;DHT22;5938;47.098;15.474;2024-01-16T09:13:07;-3.30;99.90
11762;DHT22;5938;47.098;15.474;2024-01-16T09:17:11;-2.60;99.90
11762;DHT22;5938;47.098;15.474;2024-01-16T09:21:14;-2.40;99.90
11762;DHT22;5938;47.098;15.474;2024-01-16T09:25:18;-2.30;99.90
11762;DHT22;5938;47.098;15.474;2024-01-16T09:29:24;-2.10;99.90
11762;DHT22;5938;47.098;15.474;2024-01-16T09:33:29;-2.10;99.90
11762;DHT22;5938;47.098;15.474;2024-01-16T09:37:35;-2.20;99.30
11762;DHT22;5938;47.098;15.474;2024-01-16T09:41:48;-1.90;99.00
11762;DHT22;5938;47.098;15.474;2024-01-16T09:46:02;-1.50;97.50
11762;DHT22;5938;47.098;15.474;2024-01-16T09:50:11;-1.50;97.20
11762;DHT22;5938;47.098;15.474;2024-01-16T09:54:16;-1.20;96.40
11762;DHT22;5938;47.098;15.474;2024-01-16T09:58:20;-1.00;95.20
11762;DHT22;5938;47.098;15.474;2024-01-16T10:02:28;-0.40;94.50
11762;DHT22;5938;47.098;15.474;2024-01-16T10:06:34;0.70;92.80
11762;DHT22;5938;47.098;15.474;2024-01-16T10:10:38;2.00;91.40
11762;DHT22;5938;47.098;15.474;2024-01-16T10:14:51;3.40;87.60
11762;DHT22;5938;47.098;15.474;2024-01-16T10:19:03;3.20;84.50
11762;DHT22;5938;47.098;15.474;2024-01-16T10:23:07;4.50;85.50
11762;DHT22;5938;47.098;15.474;2024-01-16T10:27:11;6.20;76.10
11762;DHT22;5938;47.098;15.474;2024-01-16T10:31:18;6.10;71.70
11762;DHT22;5938;47.098;15.474;2024-01-16T10:35:24;6.00;69.60
11762;DHT22;5938;47.098;15.474;2024-01-16T10:39:27;6.00;69.60
11762;DHT22;5938;47.098;15.474;2024-01-16T10:43:44;6.50;65.90
11762;DHT22;5938;47.098;15.474;2024-01-16T10:47:49;6.80;64.50
11762;DHT22;5938;47.098;15.474;2024-01-16T10:51:54;7.00;61.80
11762;DHT22;5938;47.098;15.474;2024-01-16T10:56:00;8.40;62.30
11762;DHT22;5938;47.098;15.474;2024-01-16T11:00:05;9.50;62.10
11762;DHT22;5938;47.098;15.474;2024-01-16T11:04:13;9.40;58.00
11762;DHT22;5938;47.098;15.474;2024-01-16T11:08:19;8.50;55.60
11762;DHT22;5938;47.098;15.474;2024-01-16T11:12:24;9.60;56.90
11762;DHT22;5938;47.098;15.474;2024-01-16T11:16:29;10.90;51.80
11762;DHT22;5938;47.098;15.474;2024-01-16T11:20:35;13.10;48.30
11762;DHT22;5938;47.098;15.474;2024-01-16T11:25:11;14.20;43.90
11762;DHT22;5938;47.098;15.474;2024-01-16T11:29:34;13.50;43.20
11762;DHT22;5938;47.098;15.474;2024-01-16T11:33:43;14.20;41.20
11762;DHT22;5938;47.098;15.474;2024-01-16T11:37:48;16.30;40.20
11762;DHT22;5938;47.098;15.474;2024-01-16T11:41:54;16.70;37.40
11762;DHT22;5938;47.098;15.474;2024-01-16T11:45:59;17.30;39.00
11762;DHT22;5938;47.098;15.474;2024-01-16T11:50:10;15.80;35.40
11762;DHT22;5938;47.098;15.474;2024-01-16T11:54:14;15.30;34.00
11762;DHT22;5938;47.098;15.474;2024-01-16T11:58:32;12.60;36.90
11762;DHT22;5938;47.098;15.474;2024-01-16T12:02:52;9.50;41.60
11762;DHT22;5938;47.098;15.474;2024-01-16T12:07:00;7.10;49.10
11762;DHT22;5938;47.098;15.474;2024-01-16T12:11:04;5.70;51.10
11762;DHT22;5938;47.098;15.474;2024-01-16T12:15:15;5.00;53.00
11762;DHT22;5938;47.098;15.474;2024-01-16T12:19:19;4.70;55.50
11762;DHT22;5938;47.098;15.474;2024-01-16T12:23:23;4.30;57.60
11762;DHT22;5938;47.098;15.474;2024-01-16T12:27:26;4.30;57.70
11762;DHT22;5938;47.098;15.474;2024-01-16T12:31:31;4.40;58.80
11762;DHT22;5938;47.098;15.474;2024-01-16T12:35:35;4.30;57.60
11762;DHT22;5938;47.098;15.474;2024-01-16T12:39:39;4.50;57.80
11762;DHT22;5938;47.098;15.474;2024-01-16T12:43:44;5.30;54.80
11762;DHT22;5938;47.098;15.474;2024-01-16T12:47:59;5.80;57.70
11762;DHT22;5938;47.098;15.474;2024-01-16T12:52:18;6.20;50.60
11762;DHT22;5938;47.098;15.474;2024-01-16T12:56:23;6.80;53.80
11762;DHT22;5938;47.098;15.474;2024-01-16T13:00:39;7.80;51.30
11762;DHT22;5938;47.098;15.474;2024-01-16T13:04:44;8.60;50.70
11762;DHT22;5938;47.098;15.474;2024-01-16T13:08:48;9.50;46.80
11762;DHT22;5938;47.098;15.474;2024-01-16T13:12:52;10.50;49.10
11762;DHT22;5938;47.098;15.474;2024-01-16T13:16:55;10.90;46.30
11762;DHT22;5938;47.098;15.474;2024-01-16T13:21:01;10.40;45.90
11762;DHT22;5938;47.098;15.474;2024-01-16T13:25:05;10.20;49.80
11762;DHT22;5938;47.098;15.474;2024-01-16T13:29:10;10.50;48.20
11762;DHT22;5938;47.098;15.474;2024-01-16T13:33:14;9.00;51.10
11762;DHT22;5938;47.098;15.474;2024-01-16T13:37:22;7.80;50.40
11762;DHT22;5938;47.098;15.474;2024-01-16T13:41:27;7.00;54.70
11762;DHT22;5938;47.098;15.474;2024-01-16T13:45:31;6.30;56.20
11762;DHT22;5938;47.098;15.474;2024-01-16T13:49:34;5.60;58.70
11762;DHT22;5938;47.098;15.474;2024-01-16T13:53:39;5.20;59.00
11762;DHT22;5938;47.098;15.474;2024-01-16T13:57:43;4.60;57.90
11762;DHT22;5938;47.098;15.474;2024-01-16T14:01:47;4.20;59.10
11762;DHT22;5938;47.098;15.474;2024-01-16T14:05:51;3.90;60.60
11762;DHT22;5938;47.098;15.474;2024-01-16T14:09:57;3.50;61.60
11762;DHT22;5938;47.098;15.474;2024-01-16T14:14:01;3.10;65.00
11762;DHT22;5938;47.098;15.474;2024-01-16T14:18:05;2.70;66.00
11762;DHT22;5938;47.098;15.474;2024-01-16T14:22:11;2.40;66.50
11762;DHT22;5938;47.098;15.474;2024-01-16T14:26:18;2.00;69.10
11762;DHT22;5938;47.098;15.474;2024-01-16T14:30:24;1.60;72.90
11762;DHT22;5938;47.098;15.474;2024-01-16T14:34:27;1.30;75.80
11762;DHT22;5938;47.098;15.474;2024-01-16T14:38:32;1.00;76.80
11762;DHT22;5938;47.098;15.474;2024-01-16T14:42:37;0.80;79.20
11762;DHT22;5938;47.098;15.474;2024-01-16T14:46:41;0.50;80.50
11762;DHT22;5938;47.098;15.474;2024-01-16T14:50:52;0.20;81.60
11762;DHT22;5938;47.098;15.474;2024-01-16T14:54:59;0.00;83.30
11762;DHT22;5938;47.098;15.474;2024-01-16T14:59:06;-0.30;84.40
11762;DHT22;5938;47.098;15.474;2024-01-16T15:03:16;-0.10;87.00
11762;DHT22;5938;47.098;15.474;2024-01-16T15:07:23;-0.30;88.40
11762;DHT22;5938;47.098;15.474;2024-01-16T15:11:28;-0.50;89.60
11762;DHT22;5938;47.098;15.474;2024-01-16T15:15:33;-0.60;90.50
11762;DHT22;5938;47.098;15.474;2024-01-16T15:19:40;-0.70;91.60
11762;DHT22;5938;47.098;15.474;2024-01-16T15:23:44;-1.00;92.00
11762;DHT22;5938;47.098;15.474;2024-01-16T15:27:48;-0.90;92.60
11762;DHT22;5938;47.098;15.474;2024-01-16T15:31:57;-1.00;93.50
11762;DHT22;5938;47.098;15.474;2024-01-16T15:36:02;-1.30;94.20
11762;DHT22;5938;47.098;15.474;2024-01-16T15:40:07;-1.40;94.40
11762;DHT22;5938;47.098;15.474;2024-01-16T15:44:11;-1.80;94.90
11762;DHT22;5938;47.098;15.474;2024-01-16T15:48:16;-1.70;95.40
11762;DHT22;5938;47.098;15.474;2024-01-16T15:52:20;-2.00;95.30
11762;DHT22;5938;47.098;15.474;2024-01-16T15:56:24;-1.90;96.00
11762;DHT22;5938;47.098;15.474;2024-01-16T16:00:29;-2.10;96.40
11762;DHT22;5938;47.098;15.474;2024-01-16T16:04:34;-2.00;96.90
11762;DHT22;5938;47.098;15.474;2024-01-16T16:08:42;-2.30;97.20
11762;DHT22;5938;47.098;15.474;2024-01-16T16:12:45;-2.40;97.30
11762;DHT22;5938;47.098;15.474;2024-01-16T16:16:50;-2.40;98.10
11762;DHT22;5938;47.098;15.474;2024-01-16T16:20:55;-2.40;98.20
11762;DHT22;5938;47.098;15.474;2024-01-16T16:25:01;-2.50;98.50
11762;DHT22;5938;47.098;15.474;2024-01-16T16:29:09;-2.40;98.60
11762;DHT22;5938;47.098;15.474;2024-01-16T16:33:13;-2.40;98.80
11762;DHT22;5938;47.098;15.474;2024-01-16T16:37:18;-2.30;99.30
11762;DHT22;5938;47.098;15.474;2024-01-16T16:41:23;-2.60;99.10
11762;DHT22;5938;47.098;15.474;2024-01-16T16:45:30;-2.60;99.20
11762;DHT22;5938;47.098;15.474;2024-01-16T16:49:33;-2.80;99.90
11762;DHT22;5938;47.098;15.474;2024-01-16T16:53:39;-2.80;99.90
11762;DHT22;5938;47.098;15.474;2024-01-16T16:57:45;-2.90;99.90
11762;DHT22;5938;47.098;15.474;2024-01-16T17:01:50;-3.20;99.90
11762;DHT22;5938;47.098;15.474;2024-01-16T17:05:55;-3.30;99.90
11762;DHT22;5938;47.098;15.474;2024-01-16T17:10:01;-3.40;99.90
11762;DHT22;5938;47.098;15.474;2024-01-16T17:14:05;-3.50;99.90
11762;DHT22;5938;47.098;15.474;2024-01-16T17:18:10;-3.40;99.90
11762;DHT22;5938;47.098;15.474;2024-01-16T17:22:14;-3.40;99.90
11762;DHT22;5938;47.098;15.474;2024-01-16T17:26:19;-3.60;99.90
11762;DHT22;5938;47.098;15.474;2024-01-16T17:30:23;-3.60;99.90
11762;DHT22;5938;47.098;15.474;2024-01-16T17:34:28;-3.70;99.90
11762;DHT22;5938;47.098;15.474;2024-01-16T17:38:33;-3.70;99.90
11762;DHT22;5938;47.098;15.474;2024-01-16T17:42:39;-3.60;99.90
11762;DHT22;5938;47.098;15.474;2024-01-16T17:46:43;-4.30;99.90
11762;DHT22;5938;47.098;15.474;2024-01-16T17:50:47;-3.90;99.90
11762;DHT22;5938;47.098;15.474;2024-01-16T17:54:51;-3.90;99.90
11762;DHT22;5938;47.098;15.474;2024-01-16T17:58:56;-4.00;99.90
11762;DHT22;5938;47.098;15.474;2024-01-16T18:03:01;-4.00;99.90
11762;DHT22;5938;47.098;15.474;2024-01-16T18:07:05;-3.90;99.90
11762;DHT22;5938;47.098;15.474;2024-01-16T18:11:09;-3.80;99.90
11762;DHT22;5938;47.098;15.474;2024-01-16T18:15:16;-4.10;99.90
11762;DHT22;5938;47.098;15.474;2024-01-16T18:19:24;-4.20;99.90
11762;DHT22;5938;47.098;15.474;2024-01-16T18:23:32;-4.30;99.90
11762;DHT22;5938;47.098;15.474;2024-01-16T18:27:38;-4.30;99.90
11762;DHT22;5938;47.098;15.474;2024-01-16T18:32:09;-4.00;99.90
11762;DHT22;5938;47.098;15.474;2024-01-16T18:36:15;-4.10;99.90
11762;DHT22;5938;47.098;15.474;2024-01-16T18:40:21;-4.30;99.90
11762;DHT22;5938;47.098;15.474;2024-01-16T18:44:32;-4.30;99.90
11762;DHT22;5938;47.098;15.474;2024-01-16T18:48:37;-4.50;99.90
11762;DHT22;5938;47.098;15.474;2024-01-16T18:52:42;-4.30;99.90
11762;DHT22;5938;47.098;15.474;2024-01-16T18:56:47;-4.40;99.90
11762;DHT22;5938;47.098;15.474;2024-01-16T19:00:51;-4.50;99.90
11762;DHT22;5938;47.098;15.474;2024-01-16T19:05:00;-4.50;99.90
11762;DHT22;5938;47.098;15.474;2024-01-16T19:09:09;-4.40;99.90
11762;DHT22;5938;47.098;15.474;2024-01-16T19:13:15;-4.50;99.90
11762;DHT22;5938;47.098;15.474;2024-01-16T19:17:19;-4.50;99.90
11762;DHT22;5938;47.098;15.474;2024-01-16T19:21:24;-4.60;99.90
11762;DHT22;5938;47.098;15.474;2024-01-16T19:25:28;-4.70;99.90
11762;DHT22;5938;47.098;15.474;2024-01-16T19:29:32;-4.60;99.90
11762;DHT22;5938;47.098;15.474;2024-01-16T19:33:35;-5.10;99.90
11762;DHT22;5938;47.098;15.474;2024-01-16T19:37:41;-4.80;99.90
11762;DHT22;5938;47.098;15.474;2024-01-16T19:41:44;-5.00;99.90
11762;DHT22;5938;47.098;15.474;2024-01-16T19:45:48;-5.00;99.90
11762;DHT22;5938;47.098;15.474;2024-01-16T19:49:52;-5.00;99.90
11762;DHT22;5938;47.098;15.474;2024-01-16T19:53:57;-5.00;99.90
11762;DHT22;5938;47.098;15.474;2024-01-16T19:58:01;-5.00;99.90
11762;DHT22;5938;47.098;15.474;2024-01-16T20:02:06;-5.20;99.90
11762;DHT22;5938;47.098;15.474;2024-01-16T20:06:11;-5.10;99.90
11762;DHT22;5938;47.098;15.474;2024-01-16T20:10:17;-5.10;99.90
11762;DHT22;5938;47.098;15.474;2024-01-16T20:14:20;-5.10;99.90
11762;DHT22;5938;47.098;15.474;2024-01-16T20:18:24;-5.20;99.90
11762;DHT22;5938;47.098;15.474;2024-01-16T20:22:28;-5.20;99.90
11762;DHT22;5938;47.098;15.474;2024-01-16T20:26:33;-5.30;99.90
11762;DHT22;5938;47.098;15.474;2024-01-16T20:30:38;-5.20;99.90
11762;DHT22;5938;47.098;15.474;2024-01-16T20:34:42;-5.20;99.90
11762;DHT22;5938;47.098;15.474;2024-01-16T20:38:46;-5.50;99.90
11762;DHT22;5938;47.098;15.474;2024-01-16T20:42:52;-5.60;99.90
11762;DHT22;5938;47.098;15.474;2024-01-16T20:46:56;-5.60;99.90
11762;DHT22;5938;47.098;15.474;2024-01-16T20:51:00;-5.60;99.90
11762;DHT22;5938;47.098;15.474;2024-01-16T20:55:04;-5.50;99.90
11762;DHT22;5938;47.098;15.474;2024-01-16T20:59:11;-5.40;99.90
11762;DHT22;5938;47.098;15.474;2024-01-16T21:03:15;-5.90;99.90
11762;DHT22;5938;47.098;15.474;2024-01-16T21:07:20;-5.70;99.90
11762;DHT22;5938;47.098;15.474;2024-01-16T21:11:26;-5.90;99.90
11762;DHT22;5938;47.098;15.474;2024-01-16T21:15:31;-5.70;99.90
11762;DHT22;5938;47.098;15.474;2024-01-16T21:19:35;-5.80;99.90
11762;DHT22;5938;47.098;15.474;2024-01-16T21:23:41;-6.00;99.90
11762;DHT22;5938;47.098;15.474;2024-01-16T21:27:45;-5.90;99.90
11762;DHT22;5938;47.098;15.474;2024-01-16T21:31:50;-6.00;99.90
11762;DHT22;5938;47.098;15.474;2024-01-16T21:35:55;-6.00;99.90
11762;DHT22;5938;47.098;15.474;2024-01-16T21:39:59;-5.90;99.90
11762;DHT22;5938;47.098;15.474;2024-01-16T21:44:02;-5.80;99.90
11762;DHT22;5938;47.098;15.474;2024-01-16T21:48:08;-6.10;99.90
11762;DHT22;5938;47.098;15.474;2024-01-16T21:52:12;-6.00;99.90
11762;DHT22;5938;47.098;15.474;2024-01-16T21:56:16;-6.00;99.90
11762;DHT22;5938;47.098;15.474;2024-01-16T22:00:20;-6.10;99.90
11762;DHT22;5938;47.098;15.474;2024-01-16T22:04:25;-6.30;99.90
11762;DHT22;5938;47.098;15.474;2024-01-16T22:08:28;-6.40;99.90
11762;DHT22;5938;47.098;15.474;2024-01-16T22:12:32;-6.40;99.90
11762;DHT22;5938;47.098;15.474;2024-01-16T22:16:35;-6.40;99.90
11762;DHT22;5938;47.098;15.474;2024-01-16T22:20:40;-6.40;99.90
11762;DHT22;5938;47.098;15.474;2024-01-16T22:24:43;-6.40;99.90
11762;DHT22;5938;47.098;15.474;2024-01-16T22:28:47;-6.30;99.90
11762;DHT22;5938;47.098;15.474;2024-01-16T22:32:50;-6.60;99.90
11762;DHT22;5938;47.098;15.474;2024-01-16T22:36:55;-6.50;99.90
11762;DHT22;5938;47.098;15.474;2024-01-16T22:40:59;-6.50;99.90
11762;DHT22;5938;47.098;15.474;2024-01-16T22:45:03;-6.50;99.90
11762;DHT22;5938;47.098;15.474;2024-01-16T22:49:07;-6.50;99.90
11762;DHT22;5938;47.098;15.474;2024-01-16T22:53:13;-6.40;99.90
11762;DHT22;5938;47.098;15.474;2024-01-16T22:57:16;-6.60;99.90
11762;DHT22;5938;47.098;15.474;2024-01-16T23:01:19;-6.70;99.90
11762;DHT22;5938;47.098;15.474;2024-01-16T23:05:24;-6.80;99.90
11762;DHT22;5938;47.098;15.474;2024-01-16T23:09:31;-6.80;99.90
11762;DHT22;5938;47.098;15.474;2024-01-16T23:13:35;-6.70;99.90
11762;DHT22;5938;47.098;15.474;2024-01-16T23:17:39;-6.90;99.90
11762;DHT22;5938;47.098;15.474;2024-01-16T23:21:42;-6.80;99.90
11762;DHT22;5938;47.098;15.474;2024-01-16T23:25:50;-6.70;99.90
11762;DHT22;5938;47.098;15.474;2024-01-16T23:29:54;-6.70;99.90
11762;DHT22;5938;47.098;15.474;2024-01-16T23:33:58;-6.90;99.90
11762;DHT22;5938;47.098;15.474;2024-01-16T23:38:01;-6.90;99.90
11762;DHT22;5938;47.098;15.474;2024-01-16T23:42:06;-6.60;99.90
11762;DHT22;5938;47.098;15.474;2024-01-16T23:46:16;-6.70;99.90
11762;DHT22;5938;47.098;15.474;2024-01-16T23:50:19;-6.80;99.90
11762;DHT22;5938;47.098;15.474;2024-01-16T23:54:23;-6.80;99.90
11762;DHT22;5938;47.098;15.474;2024-01-16T23:58:28;-6.80;99.90
